PWSweather.com
Personal Weather Stations
Station Observations
KWAGIGHA17
Gig Harbor, WA 98332

Gig Harbor, WA 98332

Lat: 47.35323, Lon: -122.58817

Elevation: 318

Station Type: Davis VP2 Wireless

http://www.gigharborweather.com

Latest ConditionsUpdated 7:20:01 PM PDT Monday, Apr 23, 2018
Currently Today's Max Today's Min Today's Average
Temperature 63.5°F17.5°C 71.9°F22.2°C 40.0°F4.4°C 53.7°F12.1°C
Dew Point 33.1°F0.6°C 42.0°F5.6°C 32.9°F0.5°C 37.5°F3.1°C
Winds Calm Calm 4.6 mph NW7.4 kmh NW - 0.5 mph 0.8 kmh
Wind Gusts 2.3 mph3.7 kmh 11.5 mph18.5 kmh - -
Humidity 32% 88% 25% 60%
Pressure 30.16 in1021.3 mb 30.34 in1027.4 mb 30.16 in1021.3 mb -
Hour Temp Dew Point Humidity Winds Wind Gusts Pressure Precip Precip Rate Daily Precip Total
07:20 PM 63.5°F17.5°C 33.1°F0.6°C 32% Calm Calm 2.3 mph3.7 kmh 30.16 in1021.3 mb - 0.00 in0.0 mm 0.00 in0.0 mm
07:10 PM 64.2°F17.9°C 33.7°F0.9°C 32% Calm Calm 9.2 mph14.8 kmh 30.16 in1021.3 mb - 0.00 in0.0 mm 0.00 in0.0 mm
07:00 PM 64.3°F17.9°C 33.0°F0.6°C 31% Calm Calm -- 30.17 in1021.7 mb - 0.00 in0.0 mm 0.00 in0.0 mm
06:50 PM 64.9°F18.3°C 35.1°F1.7°C 33% Calm Calm 3.5 mph5.6 kmh 30.18 in1022.0 mb - 0.00 in0.0 mm 0.00 in0.0 mm
06:40 PM 65.6°F18.7°C 33.3°F0.7°C 30% 1.2 mph N1.9 kmh N 1.2 mph1.9 kmh 30.18 in1022.0 mb - 0.00 in0.0 mm 0.00 in0.0 mm
06:30 PM 66.3°F19.1°C 35.5°F1.9°C 32% Calm Calm -- 30.18 in1022.0 mb - 0.00 in0.0 mm 0.00 in0.0 mm
06:20 PM 67.2°F19.6°C 34.7°F1.5°C 30% Calm Calm 1.2 mph1.9 kmh 30.19 in1022.4 mb - 0.00 in0.0 mm 0.00 in0.0 mm
06:10 PM 67.8°F19.9°C 35.2°F1.8°C 30% Calm Calm -- 30.19 in1022.4 mb - 0.00 in0.0 mm 0.00 in0.0 mm
06:00 PM 68.2°F20.1°C 36.4°F2.4°C 31% Calm Calm 1.2 mph1.9 kmh 30.20 in1022.7 mb - 0.00 in0.0 mm 0.00 in0.0 mm
05:50 PM 68.6°F20.3°C 35.9°F2.2°C 30% 1.2 mph NE1.9 kmh NE 2.3 mph3.7 kmh 30.20 in1022.7 mb - 0.00 in0.0 mm 0.00 in0.0 mm
05:40 PM 69.2°F20.7°C 38.1°F3.4°C 32% Calm Calm 1.2 mph1.9 kmh 30.20 in1022.7 mb - 0.00 in0.0 mm 0.00 in0.0 mm
05:30 PM 69.8°F21.0°C 36.9°F2.7°C 30% Calm Calm -- 30.20 in1022.7 mb - 0.00 in0.0 mm 0.00 in0.0 mm
05:20 PM 70.0°F21.1°C 37.1°F2.8°C 30% Calm Calm -- 30.20 in1022.7 mb - 0.00 in0.0 mm 0.00 in0.0 mm
05:10 PM 70.7°F21.5°C 34.1°F1.2°C 26% Calm Calm 5.8 mph9.3 kmh 30.20 in1022.7 mb - 0.00 in0.0 mm 0.00 in0.0 mm
05:00 PM 70.5°F21.4°C 33.9°F1.1°C 26% 1.2 mph NNW1.9 kmh NNW 3.5 mph5.6 kmh 30.20 in1022.7 mb - 0.00 in0.0 mm 0.00 in0.0 mm
04:50 PM 70.4°F21.3°C 32.9°F0.5°C 25% 3.5 mph NE5.6 kmh NE 4.6 mph7.4 kmh 30.20 in1022.7 mb - 0.00 in0.0 mm 0.00 in0.0 mm
04:40 PM 71.1°F21.7°C 34.4°F1.3°C 26% 2.3 mph N3.7 kmh N 10.4 mph16.7 kmh 30.21 in1023.0 mb - 0.00 in0.0 mm 0.00 in0.0 mm
04:30 PM 71.3°F21.8°C 34.6°F1.4°C 26% 3.5 mph NW5.6 kmh NW 8.1 mph13.0 kmh 30.21 in1023.0 mb - 0.00 in0.0 mm 0.00 in0.0 mm
04:20 PM 71.0°F21.7°C 34.3°F1.3°C 26% 2.3 mph N3.7 kmh N 2.3 mph3.7 kmh 30.21 in1023.0 mb - 0.00 in0.0 mm 0.00 in0.0 mm
04:10 PM 71.9°F22.2°C 34.1°F1.2°C 25% 4.6 mph NW7.4 kmh NW 8.1 mph13.0 kmh 30.21 in1023.0 mb - 0.00 in0.0 mm 0.00 in0.0 mm
04:00 PM 71.4°F21.9°C 34.7°F1.5°C 26% 1.2 mph NNE1.9 kmh NNE 8.1 mph13.0 kmh 30.21 in1023.0 mb - 0.00 in0.0 mm 0.00 in0.0 mm
03:50 PM 71.8°F22.1°C 38.7°F3.7°C 30% 3.5 mph N5.6 kmh N 11.5 mph18.5 kmh 30.22 in1023.4 mb - 0.00 in0.0 mm 0.00 in0.0 mm
03:40 PM 71.3°F21.8°C 37.4°F3.0°C 29% 3.5 mph NNW5.6 kmh NNW 5.8 mph9.3 kmh 30.22 in1023.4 mb - 0.00 in0.0 mm 0.00 in0.0 mm
03:30 PM 71.3°F21.8°C 39.1°F3.9°C 31% Calm Calm 10.4 mph16.7 kmh 30.22 in1023.4 mb - 0.00 in0.0 mm 0.00 in0.0 mm
03:20 PM 71.5°F21.9°C 35.7°F2.1°C 27% 2.3 mph NE3.7 kmh NE 8.1 mph13.0 kmh 30.23 in1023.7 mb - 0.00 in0.0 mm 0.00 in0.0 mm
03:10 PM 71.3°F21.8°C 37.4°F3.0°C 29% 1.2 mph E1.9 kmh E 3.5 mph5.6 kmh 30.23 in1023.7 mb - 0.00 in0.0 mm 0.00 in0.0 mm
03:00 PM 71.1°F21.7°C 33.5°F0.8°C 25% 3.5 mph NNW5.6 kmh NNW 9.2 mph14.8 kmh 30.23 in1023.7 mb - 0.00 in0.0 mm 0.00 in0.0 mm
02:50 PM 70.6°F21.4°C 35.0°F1.7°C 27% 1.2 mph SE1.9 kmh SE 3.5 mph5.6 kmh 30.24 in1024.0 mb - 0.00 in0.0 mm 0.00 in0.0 mm
02:40 PM 70.2°F21.2°C 36.4°F2.4°C 29% Calm Calm -- 30.24 in1024.0 mb - 0.00 in0.0 mm 0.00 in0.0 mm
02:30 PM 70.2°F21.2°C 37.3°F2.9°C 30% 1.2 mph ENE1.9 kmh ENE 4.6 mph7.4 kmh 30.25 in1024.4 mb - 0.00 in0.0 mm 0.00 in0.0 mm
02:20 PM 69.8°F21.0°C 36.0°F2.2°C 29% Calm Calm 4.6 mph7.4 kmh 30.25 in1024.4 mb - 0.00 in0.0 mm 0.00 in0.0 mm
02:10 PM 69.4°F20.8°C 34.9°F1.6°C 28% 1.2 mph NE1.9 kmh NE 3.5 mph5.6 kmh 30.25 in1024.4 mb - 0.00 in0.0 mm 0.00 in0.0 mm
02:00 PM 68.6°F20.3°C 37.6°F3.1°C 32% Calm Calm 3.5 mph5.6 kmh 30.25 in1024.4 mb - 0.00 in0.0 mm 0.00 in0.0 mm
01:50 PM 67.7°F19.8°C 37.5°F3.1°C 33% Calm Calm 1.2 mph1.9 kmh 30.26 in1024.7 mb - 0.00 in0.0 mm 0.00 in0.0 mm
01:40 PM 67.1°F19.5°C 38.6°F3.7°C 35% 2.3 mph NNE3.7 kmh NNE 8.1 mph13.0 kmh 30.26 in1024.7 mb - 0.00 in0.0 mm 0.00 in0.0 mm
01:30 PM 66.6°F19.2°C 37.3°F2.9°C 34% Calm Calm -- 30.27 in1025.1 mb - 0.00 in0.0 mm 0.00 in0.0 mm
01:20 PM 65.9°F18.8°C 38.9°F3.8°C 37% Calm Calm 2.3 mph3.7 kmh 30.27 in1025.1 mb - 0.00 in0.0 mm 0.00 in0.0 mm
01:10 PM 65.3°F18.5°C 39.0°F3.9°C 38% 1.2 mph NNW1.9 kmh NNW 3.5 mph5.6 kmh 30.27 in1025.1 mb - 0.00 in0.0 mm 0.00 in0.0 mm
01:00 PM 64.9°F18.3°C 40.0°F4.4°C 40% 2.3 mph NE3.7 kmh NE 3.5 mph5.6 kmh 30.27 in1025.1 mb - 0.00 in0.0 mm 0.00 in0.0 mm
12:50 PM 64.7°F18.2°C 39.2°F4.0°C 39% Calm Calm 3.5 mph5.6 kmh 30.28 in1025.4 mb - 0.00 in0.0 mm 0.00 in0.0 mm
12:40 PM 63.4°F17.4°C 41.7°F5.4°C 45% 1.2 mph ESE1.9 kmh ESE 3.5 mph5.6 kmh 30.28 in1025.4 mb - 0.00 in0.0 mm 0.00 in0.0 mm
12:30 PM 61.6°F16.4°C 41.1°F5.1°C 47% 1.2 mph NE1.9 kmh NE -- 30.29 in1025.7 mb - 0.00 in0.0 mm 0.00 in0.0 mm
12:20 PM 59.7°F15.4°C 42.0°F5.6°C 52% 1.2 mph NNE1.9 kmh NNE 5.8 mph9.3 kmh 30.29 in1025.7 mb - 0.00 in0.0 mm 0.00 in0.0 mm
12:10 PM 58.2°F14.6°C 41.2°F5.1°C 53% 1.2 mph ENE1.9 kmh ENE 6.9 mph11.1 kmh 30.30 in1026.1 mb - 0.00 in0.0 mm 0.00 in0.0 mm
12:00 PM 57.8°F14.3°C 40.8°F4.9°C 53% 1.2 mph NE1.9 kmh NE 3.5 mph5.6 kmh 30.30 in1026.1 mb - 0.00 in0.0 mm 0.00 in0.0 mm
11:50 AM 57.6°F14.2°C 41.1°F5.1°C 54% Calm Calm -- 30.31 in1026.4 mb - 0.00 in0.0 mm 0.00 in0.0 mm
11:40 AM 57.5°F14.2°C 41.0°F5.0°C 54% Calm Calm -- 30.31 in1026.4 mb - 0.00 in0.0 mm 0.00 in0.0 mm
11:30 AM 57.1°F13.9°C 41.1°F5.1°C 55% Calm Calm -- 30.31 in1026.4 mb - 0.00 in0.0 mm 0.00 in0.0 mm
11:20 AM 56.4°F13.6°C 40.9°F4.9°C 56% Calm Calm 1.2 mph1.9 kmh 30.32 in1026.8 mb - 0.00 in0.0 mm 0.00 in0.0 mm
11:10 AM 55.7°F13.2°C 41.2°F5.1°C 58% Calm Calm 1.2 mph1.9 kmh 30.32 in1026.8 mb - 0.00 in0.0 mm 0.00 in0.0 mm
11:00 AM 55.0°F12.8°C 40.1°F4.5°C 57% 1.2 mph N1.9 kmh N 4.6 mph7.4 kmh 30.32 in1026.8 mb - 0.00 in0.0 mm 0.00 in0.0 mm
10:50 AM 54.2°F12.3°C 40.2°F4.6°C 59% 1.2 mph NE1.9 kmh NE 3.5 mph5.6 kmh 30.32 in1026.8 mb - 0.00 in0.0 mm 0.00 in0.0 mm
10:40 AM 53.4°F11.9°C 39.4°F4.1°C 59% 1.2 mph E1.9 kmh E 6.9 mph11.1 kmh 30.33 in1027.1 mb - 0.00 in0.0 mm 0.00 in0.0 mm
10:30 AM 52.4°F11.3°C 39.7°F4.3°C 62% 1.2 mph NNE1.9 kmh NNE 2.3 mph3.7 kmh 30.33 in1027.1 mb - 0.00 in0.0 mm 0.00 in0.0 mm
10:20 AM 51.6°F10.9°C 40.6°F4.8°C 66% 1.2 mph NNW1.9 kmh NNW 3.5 mph5.6 kmh 30.33 in1027.1 mb - 0.00 in0.0 mm 0.00 in0.0 mm
10:10 AM 50.8°F10.4°C 41.0°F5.0°C 69% Calm Calm -- 30.33 in1027.1 mb - 0.00 in0.0 mm 0.00 in0.0 mm
10:00 AM 50.3°F10.2°C 40.9°F4.9°C 70% Calm Calm -- 30.33 in1027.1 mb - 0.00 in0.0 mm 0.00 in0.0 mm
09:50 AM 49.6°F9.8°C 40.9°F4.9°C 72% Calm Calm -- 30.33 in1027.1 mb - 0.00 in0.0 mm 0.00 in0.0 mm
09:40 AM 48.8°F9.3°C 40.2°F4.6°C 72% 1.2 mph NNE1.9 kmh NNE 8.1 mph13.0 kmh 30.33 in1027.1 mb - 0.00 in0.0 mm 0.00 in0.0 mm
09:30 AM 48.1°F8.9°C 40.5°F4.7°C 75% 1.2 mph NE1.9 kmh NE 3.5 mph5.6 kmh 30.33 in1027.1 mb - 0.00 in0.0 mm 0.00 in0.0 mm
09:20 AM 47.6°F8.7°C 40.7°F4.8°C 77% 1.2 mph NE1.9 kmh NE 3.5 mph5.6 kmh 30.33 in1027.1 mb - 0.00 in0.0 mm 0.00 in0.0 mm
09:10 AM 47.1°F8.4°C 40.6°F4.8°C 78% Calm Calm -- 30.33 in1027.1 mb - 0.00 in0.0 mm 0.00 in0.0 mm
09:00 AM 46.6°F8.1°C 40.4°F4.7°C 79% 1.2 mph NW1.9 kmh NW 5.8 mph9.3 kmh 30.34 in1027.4 mb - 0.00 in0.0 mm 0.00 in0.0 mm
08:50 AM 46.1°F7.8°C 40.6°F4.8°C 81% Calm Calm -- 30.34 in1027.4 mb - 0.00 in0.0 mm 0.00 in0.0 mm
08:40 AM 45.5°F7.5°C 40.3°F4.6°C 82% Calm Calm 1.2 mph1.9 kmh 30.34 in1027.4 mb - 0.00 in0.0 mm 0.00 in0.0 mm
08:30 AM 44.9°F7.2°C 40.3°F4.6°C 84% Calm Calm 2.3 mph3.7 kmh 30.34 in1027.4 mb - 0.00 in0.0 mm 0.00 in0.0 mm
08:20 AM 44.2°F6.8°C 40.2°F4.6°C 86% Calm Calm 1.2 mph1.9 kmh 30.34 in1027.4 mb - 0.00 in0.0 mm 0.00 in0.0 mm
08:10 AM 43.5°F6.4°C 39.8°F4.3°C 87% 1.2 mph ENE1.9 kmh ENE 3.5 mph5.6 kmh 30.34 in1027.4 mb - 0.00 in0.0 mm 0.00 in0.0 mm
08:00 AM 43.0°F6.1°C 39.4°F4.1°C 87% Calm Calm 2.3 mph3.7 kmh 30.34 in1027.4 mb - 0.00 in0.0 mm 0.00 in0.0 mm
07:50 AM 42.6°F5.9°C 39.2°F4.0°C 88% Calm Calm -- 30.33 in1027.1 mb - 0.00 in0.0 mm 0.00 in0.0 mm
07:40 AM 42.1°F5.6°C 38.8°F3.8°C 88% 1.2 mph NE1.9 kmh NE 4.6 mph7.4 kmh 30.33 in1027.1 mb - 0.00 in0.0 mm 0.00 in0.0 mm
07:30 AM 41.7°F5.4°C 38.4°F3.6°C 88% Calm Calm -- 30.33 in1027.1 mb - 0.00 in0.0 mm 0.00 in0.0 mm
07:20 AM 41.3°F5.2°C 38.0°F3.3°C 88% Calm Calm 3.5 mph5.6 kmh 30.32 in1026.8 mb - 0.00 in0.0 mm 0.00 in0.0 mm
07:10 AM 41.0°F5.0°C 37.7°F3.2°C 88% Calm Calm 1.2 mph1.9 kmh 30.32 in1026.8 mb - 0.00 in0.0 mm 0.00 in0.0 mm
07:00 AM 40.6°F4.8°C 37.0°F2.8°C 87% Calm Calm 2.3 mph3.7 kmh 30.32 in1026.8 mb - 0.00 in0.0 mm 0.00 in0.0 mm
06:50 AM 40.4°F4.7°C 36.8°F2.7°C 87% Calm Calm -- 30.32 in1026.8 mb - 0.00 in0.0 mm 0.00 in0.0 mm
06:40 AM 40.2°F4.6°C 36.6°F2.6°C 87% Calm Calm -- 30.32 in1026.8 mb - 0.00 in0.0 mm 0.00 in0.0 mm
06:30 AM 40.0°F4.4°C 36.2°F2.3°C 86% Calm Calm -- 30.31 in1026.4 mb - 0.00 in0.0 mm 0.00 in0.0 mm
06:20 AM 40.0°F4.4°C 36.2°F2.3°C 86% Calm Calm -- 30.31 in1026.4 mb - 0.00 in0.0 mm 0.00 in0.0 mm
06:10 AM 40.0°F4.4°C 35.9°F2.2°C 85% Calm Calm -- 30.31 in1026.4 mb - 0.00 in0.0 mm 0.00 in0.0 mm
06:00 AM 40.2°F4.6°C 36.1°F2.3°C 85% Calm Calm -- 30.31 in1026.4 mb - 0.00 in0.0 mm 0.00 in0.0 mm
05:50 AM 40.2°F4.6°C 36.1°F2.3°C 85% Calm Calm -- 30.31 in1026.4 mb - 0.00 in0.0 mm 0.00 in0.0 mm
05:40 AM 40.4°F4.7°C 36.2°F2.3°C 85% Calm Calm -- 30.31 in1026.4 mb - 0.00 in0.0 mm 0.00 in0.0 mm
05:30 AM 40.5°F4.7°C 36.3°F2.4°C 85% Calm Calm -- 30.31 in1026.4 mb - 0.00 in0.0 mm 0.00 in0.0 mm
05:20 AM 40.5°F4.7°C 36.3°F2.4°C 85% Calm Calm -- 30.32 in1026.8 mb - 0.00 in0.0 mm 0.00 in0.0 mm
05:10 AM 40.6°F4.8°C 36.4°F2.4°C 85% Calm Calm -- 30.32 in1026.8 mb - 0.00 in0.0 mm 0.00 in0.0 mm
05:00 AM 40.6°F4.8°C 36.2°F2.3°C 84% Calm Calm -- 30.32 in1026.8 mb - 0.00 in0.0 mm 0.00 in0.0 mm
04:50 AM 40.7°F4.8°C 36.3°F2.4°C 84% Calm Calm -- 30.32 in1026.8 mb - 0.00 in0.0 mm 0.00 in0.0 mm
04:40 AM 40.9°F4.9°C 36.4°F2.4°C 84% Calm Calm -- 30.32 in1026.8 mb - 0.00 in0.0 mm 0.00 in0.0 mm
04:30 AM 41.1°F5.1°C 36.3°F2.4°C 83% Calm Calm -- 30.32 in1026.8 mb - 0.00 in0.0 mm 0.00 in0.0 mm
04:20 AM 41.3°F5.2°C 36.5°F2.5°C 83% Calm Calm -- 30.32 in1026.8 mb - 0.00 in0.0 mm 0.00 in0.0 mm
04:10 AM 41.4°F5.2°C 36.7°F2.6°C 83% Calm Calm -- 30.32 in1026.8 mb - 0.00 in0.0 mm 0.00 in0.0 mm
04:00 AM 41.6°F5.3°C 36.8°F2.7°C 83% Calm Calm -- 30.32 in1026.8 mb - 0.00 in0.0 mm 0.00 in0.0 mm
03:50 AM 41.8°F5.4°C 37.0°F2.8°C 83% Calm Calm -- 30.32 in1026.8 mb - 0.00 in0.0 mm 0.00 in0.0 mm
03:40 AM 41.9°F5.5°C 37.1°F2.8°C 83% Calm Calm -- 30.32 in1026.8 mb - 0.00 in0.0 mm 0.00 in0.0 mm
03:30 AM 42.0°F5.6°C 37.2°F2.9°C 83% Calm Calm -- 30.32 in1026.8 mb - 0.00 in0.0 mm 0.00 in0.0 mm
03:20 AM 42.1°F5.6°C 37.3°F2.9°C 83% Calm Calm -- 30.32 in1026.8 mb - 0.00 in0.0 mm 0.00 in0.0 mm
03:10 AM 42.3°F5.7°C 37.2°F2.9°C 82% Calm Calm -- 30.32 in1026.8 mb - 0.00 in0.0 mm 0.00 in0.0 mm
03:00 AM 42.4°F5.8°C 37.3°F2.9°C 82% Calm Calm -- 30.32 in1026.8 mb - 0.00 in0.0 mm 0.00 in0.0 mm
02:50 AM 42.5°F5.8°C 37.4°F3.0°C 82% Calm Calm -- 30.32 in1026.8 mb - 0.00 in0.0 mm 0.00 in0.0 mm
02:40 AM 42.6°F5.9°C 36.9°F2.7°C 80% Calm Calm -- 30.32 in1026.8 mb - 0.00 in0.0 mm 0.00 in0.0 mm
02:30 AM 42.7°F5.9°C 37.0°F2.8°C 80% Calm Calm -- 30.32 in1026.8 mb - 0.00 in0.0 mm 0.00 in0.0 mm
02:20 AM 42.9°F6.1°C 36.8°F2.7°C 79% Calm Calm -- 30.32 in1026.8 mb - 0.00 in0.0 mm 0.00 in0.0 mm
02:10 AM 43.1°F6.2°C 36.7°F2.6°C 78% Calm Calm -- 30.32 in1026.8 mb - 0.00 in0.0 mm 0.00 in0.0 mm
02:00 AM 43.3°F6.3°C 36.9°F2.7°C 78% Calm Calm -- 30.32 in1026.8 mb - 0.00 in0.0 mm 0.00 in0.0 mm
01:50 AM 43.5°F6.4°C 37.1°F2.8°C 78% Calm Calm -- 30.32 in1026.8 mb - 0.00 in0.0 mm 0.00 in0.0 mm
01:40 AM 43.7°F6.5°C 37.3°F2.9°C 78% Calm Calm -- 30.32 in1026.8 mb - 0.00 in0.0 mm 0.00 in0.0 mm
01:30 AM 44.0°F6.7°C 37.3°F2.9°C 77% Calm Calm -- 30.32 in1026.8 mb - 0.00 in0.0 mm 0.00 in0.0 mm
01:20 AM 44.2°F6.8°C 37.4°F3.0°C 77% Calm Calm -- 30.32 in1026.8 mb - 0.00 in0.0 mm 0.00 in0.0 mm
01:10 AM 44.3°F6.8°C 37.5°F3.1°C 77% Calm Calm -- 30.32 in1026.8 mb - 0.00 in0.0 mm 0.00 in0.0 mm
01:00 AM 44.5°F6.9°C 37.4°F3.0°C 76% Calm Calm -- 30.32 in1026.8 mb - 0.00 in0.0 mm 0.00 in0.0 mm
12:50 AM 44.6°F7.0°C 37.2°F2.9°C 75% Calm Calm -- 30.32 in1026.8 mb - 0.00 in0.0 mm 0.00 in0.0 mm
12:40 AM 44.7°F7.1°C 36.9°F2.7°C 74% Calm Calm -- 30.32 in1026.8 mb - 0.00 in0.0 mm 0.00 in0.0 mm
12:30 AM 44.7°F7.1°C 36.6°F2.6°C 73% Calm Calm -- 30.31 in1026.4 mb - 0.00 in0.0 mm 0.00 in0.0 mm
12:20 AM 44.8°F7.1°C 36.3°F2.4°C 72% Calm Calm -- 30.31 in1026.4 mb - 0.00 in0.0 mm 0.00 in0.0 mm
12:10 AM 44.8°F7.1°C 36.0°F2.2°C 71% Calm Calm -- 30.31 in1026.4 mb - 0.00 in0.0 mm 0.00 in0.0 mm
12:00 AM 44.9°F7.2°C 35.7°F2.1°C 70% Calm Calm -- 30.31 in1026.4 mb - 0.00 in0.0 mm 0.00 in0.0 mm